sensor_id;sensor_type;location;lat;lon;timestamp;temperature;humidity
61386;DHT22;47256;18.904;-99.054;2022-09-09T00:00:15;24.50;99.90
61386;DHT22;47256;18.904;-99.054;2022-09-09T00:03:57;24.50;99.90
61386;DHT22;47256;18.904;-99.054;2022-09-09T00:07:46;24.40;99.90
61386;DHT22;47256;18.904;-99.054;2022-09-09T00:11:34;24.40;99.90
61386;DHT22;47256;18.904;-99.054;2022-09-09T00:15:47;24.40;99.90
61386;DHT22;47256;18.904;-99.054;2022-09-09T00:23:32;24.40;99.90
61386;DHT22;47256;18.904;-99.054;2022-09-09T00:26:42;24.30;99.90
61386;DHT22;47256;18.904;-99.054;2022-09-09T00:30:21;24.30;99.90
61386;DHT22;47256;18.904;-99.054;2022-09-09T00:33:45;24.30;99.90
61386;DHT22;47256;18.904;-99.054;2022-09-09T00:37:14;24.20;99.90
61386;DHT22;47256;18.904;-99.054;2022-09-09T00:41:03;24.20;99.90
61386;DHT22;47256;18.904;-99.054;2022-09-09T00:44:37;24.20;99.90
61386;DHT22;47256;18.904;-99.054;2022-09-09T00:48:06;24.20;99.90
61386;DHT22;47256;18.904;-99.054;2022-09-09T00:51:44;24.20;99.90
61386;DHT22;47256;18.904;-99.054;2022-09-09T01:06:33;24.00;99.90
61386;DHT22;47256;18.904;-99.054;2022-09-09T01:09:57;24.00;99.90
61386;DHT22;47256;18.904;-99.054;2022-09-09T01:13:33;24.00;99.90
61386;DHT22;47256;18.904;-99.054;2022-09-09T01:17:01;24.00;99.90
61386;DHT22;47256;18.904;-99.054;2022-09-09T01:24:45;23.90;99.90
61386;DHT22;47256;18.904;-99.054;2022-09-09T01:28:21;23.90;99.90
61386;DHT22;47256;18.904;-99.054;2022-09-09T01:32:00;24.00;99.90
61386;DHT22;47256;18.904;-99.054;2022-09-09T01:36:12;23.90;99.90
61386;DHT22;47256;18.904;-99.054;2022-09-09T01:39:28;23.90;99.90
61386;DHT22;47256;18.904;-99.054;2022-09-09T01:42:52;23.90;99.90
61386;DHT22;47256;18.904;-99.054;2022-09-09T01:46:16;23.90;99.90
61386;DHT22;47256;18.904;-99.054;2022-09-09T01:49:39;23.90;99.90
61386;DHT22;47256;18.904;-99.054;2022-09-09T01:53:06;23.90;99.90
61386;DHT22;47256;18.904;-99.054;2022-09-09T01:57:00;23.80;99.90
61386;DHT22;47256;18.904;-99.054;2022-09-09T02:00:30;23.80;99.90
61386;DHT22;47256;18.904;-99.054;2022-09-09T02:03:57;23.70;99.90
61386;DHT22;47256;18.904;-99.054;2022-09-09T02:07:43;23.80;99.90
61386;DHT22;47256;18.904;-99.054;2022-09-09T02:11:26;23.70;99.90
61386;DHT22;47256;18.904;-99.054;2022-09-09T02:14:56;23.70;99.90
61386;DHT22;47256;18.904;-99.054;2022-09-09T02:18:26;23.70;99.90
61386;DHT22;47256;18.904;-99.054;2022-09-09T02:21:51;23.70;99.90
61386;DHT22;47256;18.904;-99.054;2022-09-09T02:25:19;23.70;99.90
61386;DHT22;47256;18.904;-99.054;2022-09-09T02:28:55;23.80;99.90
61386;DHT22;47256;18.904;-99.054;2022-09-09T02:32:23;23.70;99.90
61386;DHT22;47256;18.904;-99.054;2022-09-09T02:35:47;23.70;99.90
61386;DHT22;47256;18.904;-99.054;2022-09-09T02:39:29;23.70;99.90
61386;DHT22;47256;18.904;-99.054;2022-09-09T02:42:56;23.70;99.90
61386;DHT22;47256;18.904;-99.054;2022-09-09T02:50:13;23.70;99.90
61386;DHT22;47256;18.904;-99.054;2022-09-09T02:57:28;23.70;99.90
61386;DHT22;47256;18.904;-99.054;2022-09-09T03:00:53;23.60;99.90
61386;DHT22;47256;18.904;-99.054;2022-09-09T03:04:16;23.60;99.90
61386;DHT22;47256;18.904;-99.054;2022-09-09T03:07:38;23.50;99.90
61386;DHT22;47256;18.904;-99.054;2022-09-09T03:11:19;23.50;99.90
61386;DHT22;47256;18.904;-99.054;2022-09-09T03:14:49;23.40;99.90
61386;DHT22;47256;18.904;-99.054;2022-09-09T03:18:12;23.40;99.90
61386;DHT22;47256;18.904;-99.054;2022-09-09T03:21:35;23.40;99.90
61386;DHT22;47256;18.904;-99.054;2022-09-09T03:25:10;23.40;99.90
61386;DHT22;47256;18.904;-99.054;2022-09-09T03:28:33;23.40;99.90
61386;DHT22;47256;18.904;-99.054;2022-09-09T03:31:55;23.40;99.90
61386;DHT22;47256;18.904;-99.054;2022-09-09T03:35:18;23.40;99.90
61386;DHT22;47256;18.904;-99.054;2022-09-09T03:38:51;23.40;99.90
61386;DHT22;47256;18.904;-99.054;2022-09-09T03:42:23;23.40;99.90
61386;DHT22;47256;18.904;-99.054;2022-09-09T03:45:47;23.40;99.90
61386;DHT22;47256;18.904;-99.054;2022-09-09T03:49:10;23.40;99.90
61386;DHT22;47256;18.904;-99.054;2022-09-09T03:52:39;23.30;99.90
61386;DHT22;47256;18.904;-99.054;2022-09-09T03:56:04;23.30;99.90
61386;DHT22;47256;18.904;-99.054;2022-09-09T03:59:28;23.30;99.90
61386;DHT22;47256;18.904;-99.054;2022-09-09T04:02:51;23.30;99.90
61386;DHT22;47256;18.904;-99.054;2022-09-09T04:06:14;23.20;99.90
61386;DHT22;47256;18.904;-99.054;2022-09-09T04:09:42;23.20;99.90
61386;DHT22;47256;18.904;-99.054;2022-09-09T04:13:05;23.10;99.90
61386;DHT22;47256;18.904;-99.054;2022-09-09T04:16:28;23.10;99.90
61386;DHT22;47256;18.904;-99.054;2022-09-09T04:19:50;23.10;99.90
61386;DHT22;47256;18.904;-99.054;2022-09-09T04:23:27;23.20;99.90
61386;DHT22;47256;18.904;-99.054;2022-09-09T04:27:08;23.10;99.90
61386;DHT22;47256;18.904;-99.054;2022-09-09T04:30:30;23.10;99.90
61386;DHT22;47256;18.904;-99.054;2022-09-09T04:33:53;23.00;99.90
61386;DHT22;47256;18.904;-99.054;2022-09-09T04:37:15;23.00;99.90
61386;DHT22;47256;18.904;-99.054;2022-09-09T04:40:52;23.00;99.90
61386;DHT22;47256;18.904;-99.054;2022-09-09T04:44:14;23.00;99.90
61386;DHT22;47256;18.904;-99.054;2022-09-09T04:47:37;23.00;99.90
61386;DHT22;47256;18.904;-99.054;2022-09-09T04:51:02;23.00;99.90
61386;DHT22;47256;18.904;-99.054;2022-09-09T04:54:31;23.00;99.90
61386;DHT22;47256;18.904;-99.054;2022-09-09T04:58:08;22.90;99.90
61386;DHT22;47256;18.904;-99.054;2022-09-09T05:01:30;23.00;99.90
61386;DHT22;47256;18.904;-99.054;2022-09-09T05:05:11;22.90;99.90
61386;DHT22;47256;18.904;-99.054;2022-09-09T05:08:52;22.90;99.90
61386;DHT22;47256;18.904;-99.054;2022-09-09T05:12:33;22.80;99.90
61386;DHT22;47256;18.904;-99.054;2022-09-09T05:16:02;22.70;99.90
61386;DHT22;47256;18.904;-99.054;2022-09-09T05:19:36;22.60;99.90
61386;DHT22;47256;18.904;-99.054;2022-09-09T05:23:11;22.60;99.90
61386;DHT22;47256;18.904;-99.054;2022-09-09T05:26:34;22.60;99.90
61386;DHT22;47256;18.904;-99.054;2022-09-09T05:29:56;22.60;99.90
61386;DHT22;47256;18.904;-99.054;2022-09-09T05:33:18;22.60;99.90
61386;DHT22;47256;18.904;-99.054;2022-09-09T05:36:49;22.60;99.90
61386;DHT22;47256;18.904;-99.054;2022-09-09T05:40:12;22.50;99.90
61386;DHT22;47256;18.904;-99.054;2022-09-09T05:43:35;22.50;99.90
61386;DHT22;47256;18.904;-99.054;2022-09-09T05:46:57;22.50;99.90
61386;DHT22;47256;18.904;-99.054;2022-09-09T05:50:26;22.40;99.90
61386;DHT22;47256;18.904;-99.054;2022-09-09T05:54:01;22.40;99.90
61386;DHT22;47256;18.904;-99.054;2022-09-09T05:57:23;22.40;99.90
61386;DHT22;47256;18.904;-99.054;2022-09-09T06:00:46;22.50;99.90
61386;DHT22;47256;18.904;-99.054;2022-09-09T06:04:08;22.40;99.90
61386;DHT22;47256;18.904;-99.054;2022-09-09T06:07:43;22.40;99.90
61386;DHT22;47256;18.904;-99.054;2022-09-09T06:11:30;22.30;99.90
61386;DHT22;47256;18.904;-99.054;2022-09-09T06:14:51;22.30;99.90
61386;DHT22;47256;18.904;-99.054;2022-09-09T06:18:13;22.30;99.90
61386;DHT22;47256;18.904;-99.054;2022-09-09T06:21:42;22.30;99.90
61386;DHT22;47256;18.904;-99.054;2022-09-09T06:25:06;22.30;99.90
61386;DHT22;47256;18.904;-99.054;2022-09-09T06:28:29;22.40;99.90
61386;DHT22;47256;18.904;-99.054;2022-09-09T06:31:50;22.30;99.90
61386;DHT22;47256;18.904;-99.054;2022-09-09T06:35:32;22.40;99.90
61386;DHT22;47256;18.904;-99.054;2022-09-09T06:38:58;22.30;99.90
61386;DHT22;47256;18.904;-99.054;2022-09-09T06:42:21;22.30;99.90
61386;DHT22;47256;18.904;-99.054;2022-09-09T06:45:43;22.30;99.90
61386;DHT22;47256;18.904;-99.054;2022-09-09T06:49:14;22.30;99.90
61386;DHT22;47256;18.904;-99.054;2022-09-09T06:52:55;22.20;99.90
61386;DHT22;47256;18.904;-99.054;2022-09-09T06:59:39;22.10;99.90
61386;DHT22;47256;18.904;-99.054;2022-09-09T07:03:02;22.10;99.90
61386;DHT22;47256;18.904;-99.054;2022-09-09T07:06:27;22.20;99.90
61386;DHT22;47256;18.904;-99.054;2022-09-09T07:09:52;22.30;99.90
61386;DHT22;47256;18.904;-99.054;2022-09-09T07:13:14;22.30;99.90
61386;DHT22;47256;18.904;-99.054;2022-09-09T07:16:36;22.20;99.90
61386;DHT22;47256;18.904;-99.054;2022-09-09T07:20:11;22.20;99.90
